Dufftown, United Kingdom
Current Conditions -  °F | °C
As of 3:50 PM on Tuesday 21 Oct 2014 (Local Time) from EGQS Reporting Station
Broken Clouds Broken Clouds  
Wind Chill: 37°   Ceiling: 5000
Heat Index: 46°   Visibility: 6mi
Dew Point: 34°   Wind: 33mph
Humidity: 62%   Direction: 310°NW
Pressure: 29.53"   Gusts: 46mph
Location:  57.43°N, 3.13°W
Report Text: EGQS 211450Z 31029G40KT 9999 FEW028 BKN050 08/01 Q1000 BLU
Loading
Personal Weather Stations






























Interactive Weather Map New forecast layout! Learn more

10-Day Weather Forecast

Advertisements
Track Severe Weather on mobile